Time;durP1;ratioP1;P1;durP2;ratioP2;P2;SDS_P1;SDS_P2;PMS_P1;PMS_P2;Temp;Humidity;BMP_temperature;BMP_pressure;BME280_temperature;BME280_humidity;BME280_pressure;Samples;Min_cycle;Max_cycle;Signal;HPM_P1;HPM_P2
2023/01/09 00:02:04;;;;;;;;;38.25;36.75;;;;;14.05;38.35;99137.47;5094027;27;8849;-76
2023/01/09 00:04:33;;;;;;;;;39.75;33.00;;;;;14.07;38.34;99134.81;5112201;27;8833;-75
2023/01/09 00:07:03;;;;;;;;;39.25;37.25;;;;;14.07;37.99;99130.44;5093715;27;8829;-74
2023/01/09 00:09:32;;;;;;;;;42.75;39.25;;;;;14.02;38.29;99137.53;5130212;27;8949;-75
2023/01/09 00:12:01;;;;;;;;;37.25;34.25;;;;;13.98;38.22;99141.97;5128988;27;8888;-74
2023/01/09 00:14:30;;;;;;;;;42.75;37.25;;;;;13.92;38.50;99136.84;5145944;27;8847;-73
2023/01/09 00:16:58;;;;;;;;;44.75;38.75;;;;;13.88;38.84;99127.34;5150811;27;8843;-75
2023/01/09 00:19:29;;;;;;;;;40.75;37.00;;;;;13.79;38.63;99127.53;5149157;27;8855;-74
2023/01/09 00:21:57;;;;;;;;;40.50;36.50;;;;;13.80;38.50;99126.63;5132256;27;8847;-72
2023/01/09 00:24:27;;;;;;;;;38.00;35.25;;;;;13.74;38.58;99119.75;5097201;27;8870;-73
2023/01/09 00:26:55;;;;;;;;;38.25;34.50;;;;;13.78;38.99;99115.28;5150313;27;8979;-76
2023/01/09 00:29:24;;;;;;;;;33.50;31.25;;;;;13.70;38.88;99115.44;5131761;27;9066;-74
2023/01/09 00:31:52;;;;;;;;;34.75;32.00;;;;;13.81;38.56;99118.72;5150563;27;8907;-75
2023/01/09 00:34:21;;;;;;;;;35.75;33.50;;;;;13.82;38.87;99114.38;5150687;27;8911;-74
2023/01/09 00:36:54;;;;;;;;;39.75;36.25;;;;;13.84;38.97;99109.94;5148815;27;8881;-73
2023/01/09 00:39:22;;;;;;;;;41.00;35.50;;;;;13.82;38.97;99111.75;5150260;27;8931;-75
2023/01/09 00:41:57;;;;;;;;;32.25;32.00;;;;;13.57;39.54;99108.75;5131835;27;8828;-75
2023/01/09 00:44:31;;;;;;;;;38.75;37.75;;;;;13.72;39.24;99110.19;5150618;27;8858;-75
2023/01/09 00:47:06;;;;;;;;;38.25;34.75;;;;;13.68;38.79;99108.53;5127379;27;8855;-73
2023/01/09 00:49:36;;;;;;;;;39.50;36.50;;;;;13.75;39.31;99107.53;5131785;27;8916;-73
2023/01/09 00:52:10;;;;;;;;;41.67;35.67;;;;;13.64;39.05;99099.88;5148681;27;8843;-75
2023/01/09 00:54:40;;;;;;;;;43.50;39.00;;;;;13.50;39.53;99096.69;5098405;27;8871;-74
2023/01/09 00:57:12;;;;;;;;;40.50;37.50;;;;;13.36;39.88;99096.94;5113404;27;9645;-74
2023/01/09 00:59:42;;;;;;;;;40.50;38.25;;;;;13.26;39.52;99088.34;5150492;27;8940;-73
2023/01/09 01:02:11;;;;;;;;;41.25;36.25;;;;;13.23;39.78;99091.91;5125869;27;8841;-72
2023/01/09 01:07:40;;;;;;;;;45.00;37.25;;;;;13.14;40.45;99086.84;5087922;28;8835;-76
2023/01/09 01:10:11;;;;;;;;;52.25;40.75;;;;;13.02;40.89;99077.47;5106560;28;9616;-74
2023/01/09 01:12:40;;;;;;;;;47.50;41.75;;;;;12.96;40.53;99079.31;5106451;28;8950;-75
2023/01/09 01:15:10;;;;;;;;;47.00;40.50;;;;;12.83;41.33;99076.03;5106269;28;8863;-73
2023/01/09 01:17:40;;;;;;;;;46.75;38.50;;;;;12.68;41.46;99075.44;5071850;28;8866;-75
2023/01/09 01:20:12;;;;;;;;;48.00;40.25;;;;;12.51;42.11;99072.19;5105889;28;8875;-73
2023/01/09 01:22:42;;;;;;;;;49.50;42.50;;;;;12.32;42.36;99076.00;5106012;28;8824;-76
2023/01/09 01:25:13;;;;;;;;;52.25;43.25;;;;;12.38;42.26;99070.66;5088072;28;8836;-72
2023/01/09 01:27:41;;;;;;;;;48.50;39.50;;;;;12.21;42.50;99068.31;5106646;28;8871;-73
2023/01/09 01:30:13;;;;;;;;;52.00;42.25;;;;;12.12;42.57;99073.66;5090637;28;8939;-75
2023/01/09 01:32:41;;;;;;;;;40.50;38.50;;;;;12.17;42.71;99064.00;5085685;28;8841;-74
2023/01/09 01:35:11;;;;;;;;;46.00;39.00;;;;;12.13;43.04;99059.72;5073870;28;8837;-75
2023/01/09 01:37:42;;;;;;;;;48.75;42.00;;;;;12.13;42.48;99047.50;5107907;28;8871;-73
2023/01/09 01:40:12;;;;;;;;;47.00;40.75;;;;;11.95;43.07;99043.44;5106675;28;8845;-75
2023/01/09 01:42:46;;;;;;;;;46.75;41.25;;;;;12.01;43.33;99037.25;5107075;28;8957;-75
2023/01/09 01:45:18;;;;;;;;;46.75;41.50;;;;;11.89;43.30;99043.50;5106999;28;8879;-74
2023/01/09 01:47:54;;;;;;;;;51.25;41.50;;;;;11.93;43.56;99039.97;5108244;28;8833;-75
2023/01/09 01:50:30;;;;;;;;;48.75;42.75;;;;;11.96;43.34;99041.69;5107675;28;8863;-76
2023/01/09 01:53:07;;;;;;;;;51.75;42.75;;;;;11.96;43.64;99039.06;5087865;28;8930;-74
2023/01/09 01:55:39;;;;;;;;;48.50;43.50;;;;;11.87;43.54;99026.94;5067557;28;8853;-73
2023/01/09 01:58:10;;;;;;;;;47.50;42.25;;;;;11.81;43.93;99017.44;5100899;28;8876;-75
2023/01/09 02:00:43;;;;;;;;;50.25;41.00;;;;;11.82;43.38;99013.09;5104986;28;8912;-75
2023/01/09 02:03:15;;;;;;;;;41.75;39.50;;;;;11.75;44.17;99014.06;5071390;28;8838;-75
2023/01/09 02:05:45;;;;;;;;;48.25;43.25;;;;;11.69;43.75;99010.66;5105333;28;8873;-75
2023/01/09 02:08:15;;;;;;;;;53.00;43.00;;;;;11.76;43.63;99013.16;5099142;28;9657;-74
2023/01/09 02:10:45;;;;;;;;;51.50;41.50;;;;;11.61;44.13;99004.69;5067713;28;8861;-73
2023/01/09 02:13:14;;;;;;;;;53.25;44.25;;;;;11.61;44.03;98996.00;5060215;28;9746;-74
2023/01/09 02:16:01;;;;;;;;;53.75;42.50;;;;;11.57;43.84;98986.44;5105041;28;8864;-74
2023/01/09 02:18:40;;;;;;;;;53.75;43.25;;;;;11.37;44.73;98976.28;5088332;28;8850;-75
2023/01/09 02:21:19;;;;;;;;;54.75;43.75;;;;;11.37;44.69;98963.22;5105034;28;9594;-74
2023/01/09 02:24:06;;;;;;;;;47.50;40.75;;;;;11.34;44.83;98956.28;5086364;28;8851;-73
2023/01/09 02:27:15;;;;;;;;;56.50;46.00;;;;;11.16;45.04;98951.31;5085937;28;8856;-76
2023/01/09 02:30:19;;;;;;;;;59.00;46.75;;;;;11.09;45.00;98953.13;5052768;28;8861;-73
2023/01/09 02:33:00;;;;;;;;;52.50;44.00;;;;;10.69;46.10;98956.19;5095331;28;8874;-75
2023/01/09 02:36:01;;;;;;;;;45.25;38.75;;;;;10.50;46.55;98938.13;5096044;28;8848;-74
2023/01/09 02:38:41;;;;;;;;;53.25;44.25;;;;;10.31;47.21;98934.84;5028530;28;8859;-74
2023/01/09 02:41:17;;;;;;;;;53.00;43.00;;;;;10.37;47.42;98920.88;5045385;28;9451;-73
2023/01/09 02:43:46;;;;;;;;;59.25;46.25;;;;;10.31;46.94;98929.63;5045966;28;8824;-73
2023/01/09 02:46:21;;;;;;;;;52.25;44.25;;;;;10.15;47.69;98930.59;5045816;28;8867;-75
2023/01/09 02:48:53;;;;;;;;;56.75;45.00;;;;;10.06;48.34;98943.75;5065761;28;8846;-72
2023/01/09 02:51:30;;;;;;;;;49.00;43.00;;;;;10.10;48.00;98948.03;5068589;28;8845;-72
2023/01/09 02:54:09;;;;;;;;;51.00;42.75;;;;;10.07;48.10;98937.63;5069165;28;8876;-75
2023/01/09 02:56:55;;;;;;;;;50.00;43.25;;;;;10.11;48.28;98940.22;5051855;28;8845;-74
2023/01/09 02:59:32;;;;;;;;;51.75;43.75;;;;;10.25;47.52;98932.28;5068783;28;8837;-75
2023/01/09 03:02:15;;;;;;;;;56.25;44.50;;;;;10.25;47.59;98915.78;5068764;28;8988;-74
2023/01/09 03:04:53;;;;;;;;;51.25;42.25;;;;;10.06;47.79;98915.94;5067855;28;8829;-74
2023/01/09 03:07:27;;;;;;;;;57.50;45.25;;;;;9.97;48.16;98915.16;5084918;28;8872;-75
2023/01/09 03:10:02;;;;;;;;;42.25;39.25;;;;;9.84;48.31;98914.38;5035937;28;8919;-74
2023/01/09 03:12:33;;;;;;;;;47.25;43.00;;;;;9.84;48.48;98909.19;5068492;28;8865;-73
2023/01/09 03:15:04;;;;;;;;;49.50;42.00;;;;;9.83;48.28;98900.50;5057467;28;8884;-73
2023/01/09 03:17:38;;;;;;;;;48.00;42.25;;;;;9.56;49.36;98893.75;5126767;27;8868;-73
2023/01/09 03:20:11;;;;;;;;;58.00;43.00;;;;;9.60;49.42;98882.44;5107862;28;8847;-74
2023/01/09 03:22:45;;;;;;;;;55.00;45.75;;;;;9.56;49.34;98879.03;5090973;28;8848;-75
2023/01/09 03:25:17;;;;;;;;;50.00;44.25;;;;;9.43;49.98;98869.53;5090957;28;8839;-73
2023/01/09 03:27:45;;;;;;;;;52.75;43.00;;;;;9.42;50.05;98874.78;5093664;28;8899;-73
2023/01/09 03:30:15;;;;;;;;;54.50;46.00;;;;;9.45;49.80;98860.00;5050098;28;10231;-73
2023/01/09 03:32:44;;;;;;;;;55.00;41.75;;;;;9.28;50.15;98874.84;5067268;28;9017;-76
2023/01/09 03:35:14;;;;;;;;;49.25;42.50;;;;;9.25;50.17;98864.47;5050832;28;8937;-75
2023/01/09 03:37:42;;;;;;;;;52.75;43.25;;;;;9.23;50.82;98851.47;5066165;28;8836;-74
2023/01/09 03:40:11;;;;;;;;;53.25;45.75;;;;;9.13;50.71;98849.78;5066999;28;8866;-75
2023/01/09 03:42:40;;;;;;;;;57.50;47.25;;;;;9.16;50.89;98855.00;5067273;28;8949;-74
2023/01/09 03:45:09;;;;;;;;;54.00;43.75;;;;;9.02;51.34;98849.88;5055058;28;8895;-73
2023/01/09 03:47:38;;;;;;;;;49.25;42.00;;;;;9.02;51.40;98846.38;5050436;28;8847;-74
2023/01/09 03:50:09;;;;;;;;;50.50;43.25;;;;;8.92;51.58;98838.66;5066791;28;8855;-74
2023/01/09 03:52:38;;;;;;;;;49.75;43.50;;;;;8.90;51.57;98834.31;5086156;28;8846;-74
2023/01/09 03:55:08;;;;;;;;;47.25;42.50;;;;;8.89;51.54;98840.41;5087232;28;8834;-74
2023/01/09 03:57:36;;;;;;;;;48.50;42.75;;;;;8.86;51.58;98841.28;5086850;28;8830;-76
2023/01/09 04:00:07;;;;;;;;;38.50;37.00;;;;;8.83;51.78;98848.22;5069344;28;8850;-73
2023/01/09 04:02:42;;;;;;;;;52.50;42.00;;;;;9.01;51.60;98842.94;5115886;27;8839;-75
2023/01/09 04:05:12;;;;;;;;;50.25;42.00;;;;;8.94;52.04;98830.84;5055632;27;8847;-73
2023/01/09 04:07:41;;;;;;;;;52.00;41.75;;;;;8.86;52.05;98836.06;5128975;27;8830;-74
2023/01/09 04:10:11;;;;;;;;;59.00;46.25;;;;;8.97;51.81;98828.22;5106613;28;8900;-74
2023/01/09 04:12:39;;;;;;;;;57.75;48.50;;;;;9.03;51.02;98827.31;5109631;28;8865;-76
2023/01/09 04:15:09;;;;;;;;;55.50;44.25;;;;;9.11;51.32;98833.34;5109771;28;8918;-75
2023/01/09 04:17:37;;;;;;;;;51.25;42.50;;;;;9.11;50.93;98833.34;5109690;28;8825;-73
2023/01/09 04:20:07;;;;;;;;;45.75;41.75;;;;;9.04;51.07;98822.13;5109471;28;8889;-72
2023/01/09 04:22:37;;;;;;;;;52.25;43.75;;;;;9.03;51.42;98819.53;5109556;28;8857;-76
2023/01/09 04:25:07;;;;;;;;;50.75;43.50;;;;;9.05;51.20;98805.63;5108954;28;8842;-75
2023/01/09 04:27:35;;;;;;;;;49.75;42.00;;;;;9.12;50.90;98822.06;5118707;27;8870;-75
2023/01/09 04:30:05;;;;;;;;;47.75;40.50;;;;;9.24;50.77;98824.56;5145224;27;8842;-75
2023/01/09 04:32:34;;;;;;;;;45.75;42.00;;;;;9.13;51.38;98823.78;5132221;27;8843;-73
2023/01/09 04:35:03;;;;;;;;;56.00;43.25;;;;;9.01;51.31;98819.53;5131999;27;9607;-75
2023/01/09 04:37:31;;;;;;;;;42.25;39.25;;;;;8.97;51.51;98826.47;5150638;27;8839;-74
2023/01/09 04:40:04;;;;;;;;;47.00;39.00;;;;;9.20;51.05;98835.88;5132009;27;8862;-74
2023/01/09 04:42:33;;;;;;;;;45.50;40.75;;;;;9.34;50.64;98831.47;5130335;27;8838;-75
2023/01/09 04:45:02;;;;;;;;;43.25;40.00;;;;;9.53;50.19;98837.38;5111484;27;8841;-75
2023/01/09 04:47:31;;;;;;;;;46.75;41.75;;;;;9.62;49.93;98843.38;5111206;27;8913;-72
2023/01/09 04:50:01;;;;;;;;;63.50;48.75;;;;;9.62;49.67;98839.06;5135751;27;8915;-74
2023/01/09 04:52:29;;;;;;;;;54.50;43.75;;;;;9.68;49.89;98846.81;5131722;27;8835;-73
2023/01/09 04:54:58;;;;;;;;;47.25;41.00;;;;;9.70;49.74;98844.22;5150487;27;8823;-72
2023/01/09 04:57:28;;;;;;;;;38.25;36.50;;;;;9.88;49.24;98830.16;5137326;27;9355;-74
2023/01/09 04:59:57;;;;;;;;;65.25;52.50;;;;;9.78;49.49;98825.91;5129721;27;8864;-73
2023/01/09 05:02:25;;;;;;;;;44.25;39.00;;;;;9.79;49.71;98812.00;5111371;27;8834;-74
2023/01/09 05:04:54;;;;;;;;;37.50;36.00;;;;;9.80;49.44;98821.56;5094730;27;8848;-74
2023/01/09 05:07:23;;;;;;;;;45.25;40.00;;;;;9.80;49.45;98816.34;5110921;27;8883;-75
2023/01/09 05:09:52;;;;;;;;;33.50;31.75;;;;;9.86;49.23;98813.69;5148705;27;8832;-74
2023/01/09 05:12:20;;;;;;;;;58.00;42.75;;;;;9.88;49.49;98823.19;5149627;27;8993;-74
2023/01/09 05:14:50;;;;;;;;;47.25;39.75;;;;;9.95;49.36;98824.00;5148406;27;8839;-74
2023/01/09 05:17:19;;;;;;;;;42.25;39.00;;;;;9.97;49.00;98824.00;5131021;27;8863;-75
2023/01/09 05:19:48;;;;;;;;;42.00;39.00;;;;;10.02;48.78;98817.88;5131501;27;8854;-75
2023/01/09 05:22:16;;;;;;;;;42.00;35.00;;;;;10.12;48.57;98827.31;5079851;27;8940;-76
2023/01/09 05:24:45;;;;;;;;;39.50;35.75;;;;;10.11;48.79;98835.13;5110518;27;8856;-75
2023/01/09 05:27:14;;;;;;;;;50.75;43.75;;;;;10.14;48.56;98835.97;5119577;27;8841;-76
2023/01/09 05:29:42;;;;;;;;;36.25;33.50;;;;;10.17;48.69;98840.28;5076014;27;8849;-75
2023/01/09 05:32:12;;;;;;;;;38.75;36.50;;;;;10.13;48.55;98834.25;5141185;27;9695;-76
2023/01/09 05:34:41;;;;;;;;;44.00;40.25;;;;;10.26;48.47;98841.91;5128843;27;8833;-75
2023/01/09 05:37:10;;;;;;;;;37.75;35.50;;;;;10.28;48.16;98835.84;5129257;27;8846;-76
2023/01/09 05:39:39;;;;;;;;;45.75;40.25;;;;;10.32;47.83;98831.47;5129053;27;8857;-75
2023/01/09 05:42:07;;;;;;;;;48.50;40.75;;;;;10.31;48.21;98841.03;5094924;27;8873;-75
2023/01/09 05:44:36;;;;;;;;;44.50;40.50;;;;;10.43;47.56;98833.94;5109097;27;8845;-74
2023/01/09 05:47:05;;;;;;;;;55.75;45.75;;;;;10.43;48.17;98831.34;5109559;27;8869;-75
2023/01/09 05:49:35;;;;;;;;;46.50;40.50;;;;;10.29;48.23;98823.66;5110167;27;8861;-73
2023/01/09 05:52:04;;;;;;;;;43.50;37.75;;;;;10.27;48.43;98821.06;5109861;27;8849;-75
2023/01/09 05:54:33;;;;;;;;;41.00;38.00;;;;;10.28;48.32;98811.50;5096496;27;8925;-74
2023/01/09 05:57:01;;;;;;;;;44.00;39.00;;;;;10.17;48.59;98827.28;5130750;27;8981;-74
2023/01/09 05:59:30;;;;;;;;;37.75;34.25;;;;;10.24;48.55;98815.03;5116970;27;8938;-76
2023/01/09 06:01:59;;;;;;;;;39.75;36.75;;;;;10.26;48.70;98818.47;5134790;27;8836;-75
2023/01/09 06:04:28;;;;;;;;;38.50;37.25;;;;;10.25;48.40;98807.19;5104328;27;9480;-72
2023/01/09 06:06:58;;;;;;;;;58.50;48.50;;;;;10.33;48.53;98809.75;5108780;27;8854;-75
2023/01/09 06:09:27;;;;;;;;;41.00;36.25;;;;;10.26;48.32;98788.06;5128894;27;8901;-74
2023/01/09 06:11:56;;;;;;;;;40.00;38.25;;;;;10.26;48.53;98801.09;5051598;28;8997;-74
2023/01/09 06:14:25;;;;;;;;;38.25;33.25;;;;;10.21;48.80;98789.00;5031649;28;8863;-73
2023/01/09 06:16:54;;;;;;;;;43.00;38.00;;;;;10.25;48.57;98795.91;5048444;28;8855;-76
2023/01/09 06:19:23;;;;;;;;;40.75;38.00;;;;;10.30;48.48;98791.50;5073568;28;8837;-76
2023/01/09 06:21:52;;;;;;;;;38.50;33.25;;;;;10.29;48.32;98784.56;5086307;28;8876;-77
2023/01/09 06:24:22;;;;;;;;;40.50;35.00;;;;;10.24;48.74;98791.56;5088945;28;8918;-76
2023/01/09 06:26:51;;;;;;;;;39.25;34.25;;;;;10.30;48.40;98786.28;5071636;28;8865;-75
2023/01/09 06:29:20;;;;;;;;;32.50;31.75;;;;;10.21;48.75;98778.56;5018830;28;8856;-77
2023/01/09 06:31:49;;;;;;;;;40.00;39.00;;;;;10.25;48.85;98775.94;5051271;28;8882;-77
2023/01/09 06:34:18;;;;;;;;;39.00;37.25;;;;;10.39;48.17;98780.13;5068607;28;8840;-77
2023/01/09 06:36:47;;;;;;;;;42.25;38.00;;;;;10.34;48.58;98780.22;5049908;28;8928;-78
2023/01/09 06:39:16;;;;;;;;;38.00;37.00;;;;;10.29;48.70;98771.53;5048307;28;9704;-75
2023/01/09 06:41:45;;;;;;;;;37.75;35.75;;;;;10.42;48.47;98770.53;5014878;28;8946;-75
2023/01/09 06:44:16;;;;;;;;;32.50;32.25;;;;;10.34;48.65;98765.44;5031752;28;8854;-75
2023/01/09 06:46:45;;;;;;;;;29.75;29.25;;;;;10.48;48.54;98762.63;5051572;28;8850;-76
2023/01/09 06:49:13;;;;;;;;;34.00;31.50;;;;;10.49;48.16;98766.09;5069424;28;8857;-75
2023/01/09 06:51:42;;;;;;;;;30.50;30.25;;;;;10.50;48.47;98755.66;5102221;28;8859;-76
2023/01/09 06:54:11;;;;;;;;;39.00;34.75;;;;;10.59;47.92;98749.47;5090999;28;8832;-76
2023/01/09 06:56:40;;;;;;;;;38.75;38.00;;;;;10.54;48.28;98757.34;5090493;28;8862;-76
2023/01/09 06:59:10;;;;;;;;;41.25;37.50;;;;;10.57;48.30;98760.78;5053804;28;8849;-75
2023/01/09 07:01:39;;;;;;;;;39.50;38.00;;;;;10.63;47.75;98764.19;5109702;28;8873;-76
2023/01/09 07:04:09;;;;;;;;;44.00;35.25;;;;;10.52;48.62;98747.81;5111038;28;8881;-74
2023/01/09 07:06:38;;;;;;;;;35.75;34.00;;;;;10.54;48.57;98746.06;5120182;27;8871;-74
2023/01/09 07:09:12;;;;;;;;;35.00;31.00;;;;;10.61;48.33;98757.28;5089232;28;8898;-74
2023/01/09 07:11:40;;;;;;;;;35.00;30.75;;;;;10.68;48.01;98757.19;5068815;28;8960;-76
2023/01/09 07:14:10;;;;;;;;;40.50;37.25;;;;;10.64;48.47;98741.56;5110817;28;8868;-75
2023/01/09 07:16:39;;;;;;;;;39.50;32.25;;;;;10.62;48.16;98749.41;5110708;28;8861;-76
2023/01/09 07:19:08;;;;;;;;;34.50;34.50;;;;;10.53;48.46;98736.53;5092425;28;8864;-73
2023/01/09 07:21:36;;;;;;;;;34.25;31.25;;;;;10.59;48.62;98739.03;5110339;28;9687;-74
2023/01/09 07:24:06;;;;;;;;;38.00;36.25;;;;;10.46;49.00;98724.47;5105876;27;8855;-77
2023/01/09 07:26:34;;;;;;;;;38.50;34.50;;;;;10.43;49.37;98727.94;5091567;28;8888;-75
2023/01/09 07:29:04;;;;;;;;;40.00;34.00;;;;;10.43;49.05;98732.31;5105515;27;8930;-76
2023/01/09 07:31:34;;;;;;;;;23.50;20.50;;;;;10.44;49.49;98729.69;5095061;27;8837;-75
2023/01/09 07:34:03;;;;;;;;;37.50;36.50;;;;;10.40;49.20;98716.72;5110747;27;8845;-76
2023/01/09 07:36:32;;;;;;;;;35.50;31.75;;;;;10.32;49.27;98722.00;5099107;28;9565;-76
2023/01/09 07:39:01;;;;;;;;;34.00;31.50;;;;;10.27;49.64;98700.34;5040660;28;8848;-74
2023/01/09 07:41:29;;;;;;;;;22.25;20.75;;;;;10.34;49.60;98704.63;5107415;28;8885;-74
2023/01/09 07:43:58;;;;;;;;;29.00;27.25;;;;;10.37;49.80;98706.34;5088784;28;8856;-76
2023/01/09 07:46:27;;;;;;;;;33.00;30.00;;;;;10.34;49.78;98699.44;5107365;28;8898;-78
2023/01/09 07:48:57;;;;;;;;;30.25;26.75;;;;;10.20;50.34;98699.56;5107483;28;8844;-75
2023/01/09 07:51:26;;;;;;;;;34.50;31.25;;;;;10.23;50.06;98694.31;5107958;28;8874;-74
2023/01/09 07:53:55;;;;;;;;;34.50;31.50;;;;;10.35;49.91;98690.72;5090365;28;8844;-76
2023/01/09 07:56:24;;;;;;;;;33.00;32.50;;;;;10.34;50.03;98683.78;5090037;28;8982;-77
2023/01/09 07:58:52;;;;;;;;;33.00;30.50;;;;;10.39;49.77;98687.19;5090180;28;9630;-76
2023/01/09 08:01:21;;;;;;;;;30.50;28.25;;;;;10.41;50.43;98677.59;5109324;28;8856;-76
2023/01/09 08:03:50;;;;;;;;;32.25;30.25;;;;;10.43;49.61;98682.78;5107813;28;8839;-76
2023/01/09 08:06:20;;;;;;;;;33.00;27.75;;;;;10.35;49.98;98680.28;5090277;28;8886;-77
2023/01/09 08:08:49;;;;;;;;;41.75;34.75;;;;;10.46;50.08;98680.16;5129317;27;8897;-76
2023/01/09 08:11:18;;;;;;;;;35.00;31.25;;;;;10.46;50.35;98680.16;5112884;27;8854;-76
2023/01/09 08:13:47;;;;;;;;;35.00;31.25;;;;;10.56;50.15;98668.69;5132676;27;9626;-74
2023/01/09 08:16:16;;;;;;;;;32.25;31.00;;;;;10.69;50.13;98675.44;5114201;27;9024;-74
2023/01/09 08:18:45;;;;;;;;;34.75;32.50;;;;;10.72;49.83;98674.56;5136143;27;8852;-77
2023/01/09 08:21:14;;;;;;;;;31.00;29.25;;;;;10.75;49.83;98684.91;5151116;27;8859;-75
2023/01/09 08:23:45;;;;;;;;;31.00;28.50;;;;;10.85;49.72;98681.31;5115686;27;8836;-75
2023/01/09 08:26:13;;;;;;;;;24.50;23.50;;;;;10.98;49.03;98688.91;5129072;27;8956;-76
2023/01/09 08:28:42;;;;;;;;;34.00;30.25;;;;;11.01;48.98;98674.06;5113569;27;8842;-77
2023/01/09 08:31:11;;;;;;;;;34.50;31.25;;;;;10.94;49.37;98675.06;5125015;27;8981;-77
2023/01/09 08:33:40;;;;;;;;;36.75;30.50;;;;;11.10;48.94;98676.53;5132269;27;8862;-76
2023/01/09 08:36:09;;;;;;;;;23.75;23.50;;;;;11.06;48.80;98672.25;5140558;27;8976;-76
2023/01/09 08:38:38;;;;;;;;;26.25;26.25;;;;;11.19;49.00;98690.31;5111866;27;8871;-75
2023/01/09 08:49:24;;;;;;;;;26.75;26.75;;;;;11.37;48.25;98676.09;5060113;28;8874;-76
2023/01/09 08:51:54;;;;;;;;;30.00;27.00;;;;;11.52;47.83;98686.25;5087575;28;8874;-75
2023/01/09 08:54:23;;;;;;;;;29.00;28.00;;;;;11.58;48.41;98680.06;5049421;28;8852;-76
2023/01/09 08:56:53;;;;;;;;;20.25;18.00;;;;;11.61;47.62;98680.88;5064829;28;9680;-76
2023/01/09 08:59:22;;;;;;;;;32.25;28.75;;;;;11.70;47.23;98670.25;5067940;28;8841;-76
2023/01/09 09:01:51;;;;;;;;;28.00;28.00;;;;;11.81;47.76;98682.22;5065478;28;8844;-76
2023/01/09 09:04:20;;;;;;;;;32.25;30.25;;;;;11.83;46.86;98676.09;5074226;28;8868;-76
2023/01/09 09:06:49;;;;;;;;;32.75;29.00;;;;;11.91;47.53;98683.81;5052790;28;8856;-75
2023/01/09 09:09:18;;;;;;;;;31.25;29.25;;;;;12.07;47.31;98693.03;5068695;28;8944;-75
2023/01/09 09:11:46;;;;;;;;;32.00;29.25;;;;;12.21;46.04;98682.31;5097584;27;8837;-76
2023/01/09 09:17:03;;;;;;;;;37.75;33.00;;;;;12.35;46.15;98681.16;5110791;27;8861;-75
2023/01/09 09:19:32;;;;;;;;;30.00;30.00;;;;;12.32;46.27;98663.78;5129068;27;8845;-77
2023/01/09 09:22:01;;;;;;;;;30.50;27.00;;;;;12.48;45.43;98662.56;5093450;27;8865;-76
2023/01/09 09:24:30;;;;;;;;;34.50;32.25;;;;;12.37;46.15;98659.31;5111164;27;8843;-77
2023/01/09 09:26:58;;;;;;;;;29.00;28.00;;;;;12.35;46.16;98668.94;5128974;27;8999;-77
2023/01/09 09:29:29;;;;;;;;;37.50;34.50;;;;;12.51;46.23;98666.84;5130122;27;8826;-75
2023/01/09 09:31:57;;;;;;;;;32.00;30.25;;;;;12.57;46.55;98660.63;5143425;27;8837;-77
2023/01/09 09:34:29;;;;;;;;;35.00;34.25;;;;;12.52;47.08;98657.25;5075601;27;8973;-75
2023/01/09 09:36:58;;;;;;;;;29.00;26.75;;;;;12.58;46.76;98659.72;5119086;27;8831;-77
2023/01/09 09:39:27;;;;;;;;;33.25;28.00;;;;;12.68;46.81;98653.38;5114261;27;8847;-77
2023/01/09 09:45:22;;;;;;;;;33.25;30.50;;;;;12.60;46.62;98655.31;5068985;28;8869;-76
2023/01/09 09:48:02;;;;;;;;;32.75;30.75;;;;;12.67;47.00;98655.16;5047823;28;8873;-75
2023/01/09 09:51:02;;;;;;;;;25.75;25.75;;;;;12.80;47.03;98662.72;5028303;28;8892;-76
2023/01/09 09:53:38;;;;;;;;;35.50;35.00;;;;;12.71;47.81;98653.31;5044971;28;8850;-77
2023/01/09 09:56:12;;;;;;;;;30.75;30.00;;;;;12.71;48.32;98645.47;5027439;28;8955;-76
2023/01/09 09:58:44;;;;;;;;;30.50;28.25;;;;;12.73;47.88;98634.97;5044834;28;8850;-77
2023/01/09 10:01:21;;;;;;;;;34.75;31.25;;;;;12.73;48.53;98632.34;4995752;28;8948;-76
2023/01/09 10:03:53;;;;;;;;;22.75;20.50;;;;;12.79;48.24;98638.28;4988476;28;8862;-75
2023/01/09 10:06:28;;;;;;;;;35.75;33.00;;;;;12.94;47.88;98633.59;4972452;28;8867;-78
2023/01/09 10:09:06;;;;;;;;;32.00;29.50;;;;;13.09;47.68;98624.50;4956240;28;8862;-75
2023/01/09 10:11:42;;;;;;;;;29.25;29.25;;;;;12.98;48.17;98628.22;4985400;28;8872;-76
2023/01/09 10:14:12;;;;;;;;;31.60;28.20;;;;;13.02;47.98;98644.72;4979538;28;8867;-78
2023/01/09 10:17:10;;;;;;;;;30.50;30.25;;;;;13.11;49.05;98633.16;5002708;28;8865;-76
2023/01/09 10:20:08;;;;;;;;;23.00;21.75;;;;;13.13;48.83;98626.13;5002336;28;8862;-77
2023/01/09 10:22:51;;;;;;;;;36.00;31.00;;;;;13.16;49.24;98623.44;5084125;28;8978;-76
2023/01/09 10:25:27;;;;;;;;;23.50;21.75;;;;;13.06;49.96;98614.94;5088544;28;8982;-76
2023/01/09 10:28:09;;;;;;;;;31.00;29.25;;;;;13.06;49.37;98599.25;5071305;28;8883;-76
2023/01/09 10:30:42;;;;;;;;;31.50;31.00;;;;;13.01;49.92;98599.38;5104351;28;9635;-75
2023/01/09 10:33:26;;;;;;;;;28.00;28.00;;;;;12.96;50.05;98593.38;5071540;28;8855;-77
2023/01/09 10:36:22;;;;;;;;;26.80;25.20;;;;;13.06;49.83;98587.03;5071446;28;9019;-76
2023/01/09 10:38:55;;;;;;;;;35.25;33.50;;;;;13.12;49.95;98580.78;5054649;28;8860;-76
2023/01/09 10:41:30;;;;;;;;;35.25;30.00;;;;;13.00;50.20;98576.69;5107169;27;8860;-75
2023/01/09 10:44:04;;;;;;;;;30.50;30.50;;;;;12.90;51.18;98584.84;5107957;27;8876;-76
2023/01/09 10:46:39;;;;;;;;;28.00;25.80;;;;;12.90;51.01;98582.22;5109455;27;8845;-76
2023/01/09 10:49:16;;;;;;;;;35.50;30.25;;;;;13.00;51.00;98568.00;5108326;27;8837;-77
2023/01/09 10:51:48;;;;;;;;;31.20;30.40;;;;;13.05;51.05;98580.06;5125171;27;8869;-78
2023/01/09 10:54:22;;;;;;;;;34.50;30.25;;;;;12.99;51.92;98561.06;5109766;27;8945;-76
2023/01/09 10:56:55;;;;;;;;;30.00;28.50;;;;;13.07;52.14;98553.84;5093753;27;9634;-76
2023/01/09 10:59:25;;;;;;;;;33.75;29.50;;;;;13.16;51.61;98543.16;5113360;27;8843;-76
2023/01/09 11:01:53;;;;;;;;;34.00;32.00;;;;;13.10;51.78;98524.13;5084067;28;8858;-77
2023/01/09 11:04:28;;;;;;;;;31.00;29.00;;;;;13.15;52.35;98522.25;5050627;28;8898;-77
2023/01/09 11:07:02;;;;;;;;;33.50;31.50;;;;;13.15;51.72;98519.63;5067166;28;8853;-76
2023/01/09 11:09:55;;;;;;;;;34.00;31.75;;;;;13.16;52.80;98506.50;5052732;28;8866;-76
2023/01/09 11:12:26;;;;;;;;;35.50;32.00;;;;;13.23;51.88;98505.44;5087541;28;8885;-75
2023/01/09 11:14:55;;;;;;;;;28.00;26.50;;;;;13.35;51.99;98506.03;5070663;28;8946;-77
2023/01/09 11:17:27;;;;;;;;;29.00;28.25;;;;;13.23;52.46;98505.44;5080526;28;8859;-76
2023/01/09 11:20:04;;;;;;;;;33.75;33.25;;;;;13.13;52.69;98482.16;5081870;28;8946;-77
2023/01/09 11:22:43;;;;;;;;;33.00;32.00;;;;;13.02;52.81;98475.47;5087921;28;8846;-76
2023/01/09 11:25:14;;;;;;;;;31.00;27.75;;;;;13.03;53.00;98484.19;5087714;28;8865;-75
2023/01/09 11:27:43;;;;;;;;;31.25;30.75;;;;;12.94;53.47;98471.34;5072376;28;8857;-77
2023/01/09 11:30:25;;;;;;;;;37.25;32.25;;;;;13.05;53.05;98470.16;5067885;28;8849;-75
2023/01/09 11:32:55;;;;;;;;;35.75;31.25;;;;;13.17;52.65;98465.47;5072499;28;8838;-76
2023/01/09 11:35:30;;;;;;;;;26.00;24.50;;;;;13.19;51.89;98469.75;5053624;28;8896;-76
2023/01/09 11:38:06;;;;;;;;;34.75;32.75;;;;;13.26;51.97;98439.88;5066146;28;8840;-75
2023/01/09 11:40:46;;;;;;;;;32.25;32.25;;;;;13.11;51.95;98450.78;5100001;27;8857;-75
2023/01/09 11:43:19;;;;;;;;;35.75;32.25;;;;;13.21;52.46;98446.16;5145468;27;8842;-77
2023/01/09 11:45:55;;;;;;;;;34.50;30.75;;;;;13.21;52.32;98448.75;5113857;27;8842;-76
2023/01/09 11:48:37;;;;;;;;;40.25;34.75;;;;;13.24;51.90;98440.84;5103022;27;8957;-77
2023/01/09 11:51:21;;;;;;;;;41.25;36.75;;;;;13.55;51.46;98447.78;5130583;27;8834;-76
2023/01/09 11:54:07;;;;;;;;;41.75;38.00;;;;;13.48;51.75;98433.16;5130558;27;8853;-77
2023/01/09 11:56:37;;;;;;;;;38.25;36.50;;;;;13.52;50.94;98435.66;5079722;27;8851;-76
2023/01/09 11:59:11;;;;;;;;;37.75;32.25;;;;;13.51;51.19;98427.84;5115875;27;8851;-75
2023/01/09 12:02:25;;;;;;;;;44.00;37.75;;;;;13.63;51.13;98415.25;5115324;27;8850;-78
2023/01/09 12:04:56;;;;;;;;;40.50;35.50;;;;;13.72;50.78;98419.31;5015155;28;8875;-76
2023/01/09 12:08:04;;;;;;;;;40.50;33.00;;;;;13.64;51.10;98403.00;4994060;28;8879;-77